Rock Lake, North Dakota
Current Conditions -  °F | °C
As of 3:15 PM on Saturday 22 Nov 2014 (Local Time) from K06D Reporting Station
Unknown Precip Unknown Precip  
Wind Chill: -5°   Ceiling: 600
Heat Index:   Visibility: 10mi
Dew Point:   Wind: 12mph
Humidity: 100%   Direction: 120°ESE
Pressure: 29.37"   Gusts: NA
Location:  48.8584°N, 99.1311°W
Report Text: K06D 222115Z AUTO 12010KT 10SM UP BKN006 00/00 A2937 RMK AO2
Loading
Personal Weather Stations






























Interactive Weather Map New forecast layout! Learn more

10-Day Weather Forecast

Advertisements
Track Severe Weather on mobile